Flight Track Log - Related Links

Times and Time Zones

All times are in EDT time to prevent confusion due to time zone crossing. See the N129UP flight status page for this flight to view local times or setup timezone preferences in your user account.

Time Position Orientation Groundspeed Altitude Reporting Facility
EDT Latitude Longitude Course Direction KTS MPH feet Rate Location/Type
Tue 09:40:28 AM 35.0490 -106.6690 357° North 244 281 8,500  Level FlightAware
Tue 09:40:53 AM 35.0790 -106.6630 North 283 326 9,200 2,486 Climbing FlightAware
Tue 09:41:38 AM 35.1430 -106.6470 12° North 319 367 11,400 2,824 Climbing FlightAware
Tue 09:42:18 AM 35.2030 -106.6330 11° North 346 398 13,200 2,850 Climbing FlightAware
Tue 09:42:58 AM 35.2680 -106.6170 11° North 361 415 15,200 2,509 Climbing FlightAware
Tue 09:43:13 AM 35.2890 -106.6020 30° Northeast 375 432 15,500 1,000 Climbing FlightAware
Tue 09:43:28 AM 35.3050 -106.5790 50° Northeast 386 444 15,700 2,291 Climbing FlightAware
Tue 09:44:08 AM 35.3340 -106.4970 67° East 379 436 17,600 3,247 Climbing FlightAware
Tue 09:44:53 AM 35.3650 -106.4090 67° East 376 433 20,300 2,471 Climbing FlightAware
Tue 09:45:33 AM 35.3930 -106.3270 67° East 406 467 21,100 1,624 Climbing FlightAware
Tue 09:46:18 AM 35.4250 -106.2320 68° East 420 483 22,600 1,976 Climbing FlightAware
Tue 09:46:58 AM 35.4550 -106.1420 68° East 435 501 23,900 1,875 Climbing FlightAware
Tue 09:47:38 AM 35.4840 -106.0540 68° East 443 510 25,100 1,341 Climbing FlightAware
Tue 09:48:23 AM 35.5200 -105.9470 68° East 464 534 25,800 600 Climbing FlightAware
Tue 09:49:18 AM 35.5640 -105.8160 68° East 482 555 26,100 189 Climbing FlightAware
Tue 09:49:58 AM 35.5920 -105.7290 68° East 482 555 26,100  Level FlightAware
Tue 09:50:28 AM 35.6130 -105.6650 68° East 482 555 26,100  Level FlightAware
Tue 09:51:08 AM 35.6420 -105.5780 68° East 482 555 26,100  Level FlightAware
Tue 09:51:48 AM 35.6700 -105.4920 68° East 482 555 26,100  Level FlightAware
Tue 09:52:28 AM 35.6990 -105.4050 68° East 482 555 26,100 4,563 Level FlightAware
Tue 09:53:24 AM 35.7669 -105.1983 68° East 482 555 33,400 4,103 Climbing Albuquerque Center
Tue 09:54:25 AM 35.8156 -105.0431 69° East 480 552 34,100 732 Climbing Albuquerque Center
Tue 09:55:27 AM 35.8681 -104.8800 68° East 495 570 34,900 439 Climbing Albuquerque Center
Tue 09:56:28 AM 35.9325 -104.6861 68° East 513 590 35,000 49 Climbing Albuquerque Center
Tue 09:57:29 AM 35.9856 -104.5167 69° East 518 596 35,000  Level Albuquerque Center
Tue 09:58:31 AM 36.0381 -104.3489 69° East 518 596 35,000  Level Albuquerque Center
Tue 09:59:32 AM 36.0919 -104.1808 68° East 518 596 35,000  Level Albuquerque Center
Tue 10:00:34 AM 36.1456 -104.0117 69° East 521 600 35,000  Level Albuquerque Center
Tue 10:01:35 AM 36.1994 -103.8436 68° East 521 600 35,000  Level Albuquerque Center
Tue 10:02:36 AM 36.2522 -103.6714 69° East 526 605 35,000  Level Albuquerque Center
Tue 10:03:38 AM 36.3047 -103.4997 69° East 526 605 35,000  Level Albuquerque Center
Tue 10:04:39 AM 36.3569 -103.3283 69° East 527 606 35,000  Level Albuquerque Center
Tue 10:05:41 AM 36.4072 -103.1600 70° East 520 598 35,000  Level Albuquerque Center
Tue 10:06:42 AM 36.4581 -102.9961 69° East 509 586 35,000  Level Albuquerque Center
Tue 10:07:44 AM 36.5058 -102.8322 70° East 498 573 35,000  Level Albuquerque Center
Tue 10:08:45 AM 36.5542 -102.6708 70° East 497 572 35,000  Level Albuquerque Center
Tue 10:09:46 AM 36.6033 -102.5061 70° East 503 579 35,000  Level Albuquerque Center
Tue 10:10:48 AM 36.6511 -102.3425 70° East 503 579 35,000  Level Albuquerque Center
Tue 10:11:49 AM 36.7044 -102.1606 70° East 505 581 35,000  Level Albuquerque Center
Tue 10:12:51 AM 36.7497 -102.0042 70° East 503 579 35,000  Level Albuquerque Center
Tue 10:13:53 AM 36.8017 -101.8250 70° East 495 570 35,000  Level Albuquerque Center
Tue 10:14:54 AM 36.8467 -101.6728 70° East 492 566 35,000  Level Albuquerque Center
Tue 10:15:56 AM 36.8972 -101.4911 71° East 495 570 35,000  Level Albuquerque Center
Tue 10:17:37 AM 36.9706 -101.2339 70° East 495 570 35,000  Level Kansas Center
Tue 10:18:41 AM 37.0211 -101.0528 71° East 495 570 35,000  Level Kansas Center
Tue 10:19:41 AM 37.0625 -100.8947 72° East 500 575 35,000  Level Kansas Center
Tue 10:20:45 AM 37.1011 -100.7131 75° East 490 564 35,000 48 Level Kansas Center
Tue 10:21:46 AM 37.1361 -100.5572 74° East 489 563 35,100  Climbing Kansas Center
Tue 10:22:47 AM 37.1761 -100.3742 75° East 491 565 35,000 -49 Descending Kansas Center
Tue 10:23:48 AM 37.2103 -100.2147 75° East 494 568 35,000  Level Kansas Center
Tue 10:24:52 AM 37.2511 -100.0272 75° East 500 575 35,000  Level Kansas Center
Tue 10:25:52 AM 37.2853 -99.8650 75° East 502 578 35,000  Level Kansas Center
Tue 10:26:56 AM 37.3242 -99.6800 75° East 496 571 35,000  Level Kansas Center
Tue 10:27:57 AM 37.3569 -99.5203 75° East 495 570 35,000  Level Kansas Center
Tue 10:28:58 AM 37.3969 -99.3472 74° East 504 580 35,000  Level Kansas Center
Tue 10:30:02 AM 37.4322 -99.1767 75° East 506 582 35,000  Level Kansas Center
Tue 10:31:03 AM 37.4631 -99.0053 77° East 504 580 35,000  Level Kansas Center
Tue 10:37:08 AM 37.6740 -97.9540 77° East 500 575 35,000  Level FlightAware
Tue 10:37:53 AM 37.6990 -97.8270 76° East 498 573 35,000  Level FlightAware
Tue 10:38:33 AM 37.7220 -97.7080 76° East 499 574 35,000  Level FlightAware
Tue 10:39:18 AM 37.7460 -97.5810 77° East 498 573 35,000  Level FlightAware
Tue 10:39:58 AM 37.7680 -97.4650 76° East 497 572 35,000  Level FlightAware
Tue 10:40:43 AM 37.7900 -97.3380 78° East 495 570 35,000  Level FlightAware
Tue 10:41:23 AM 37.8100 -97.2280 77° East 495 570 35,000  Level FlightAware
Tue 10:42:03 AM 37.8310 -97.1140 77° East 488 562 35,000  Level FlightAware
Tue 10:42:48 AM 37.8540 -96.9890 77° East 492 566 35,000  Level FlightAware
Tue 10:43:28 AM 37.8720 -96.8820 78° East 495 570 35,000  Level FlightAware
Tue 10:44:13 AM 37.8940 -96.7610 77° East 495 570 35,000  Level FlightAware
Tue 10:44:48 AM 37.9130 -96.6510 78° East 490 564 35,000  Level FlightAware
Tue 10:45:33 AM 37.9350 -96.5290 77° East 486 559 35,000  Level FlightAware
Tue 10:46:18 AM 37.9570 -96.4000 78° East 494 568 35,000  Level FlightAware
Tue 10:47:28 AM 37.9900 -96.2090 78° East 500 575 35,000  Level FlightAware
Tue 10:48:03 AM 38.0070 -96.1170 77° East 500 575 35,000  Level FlightAware
Tue 10:48:43 AM 38.0250 -96.0190 77° East 500 575 35,000  Level FlightAware
Tue 10:50:43 AM 38.0840 -95.6570 78° East 496 571 35,000  Level FlightAware
Tue 10:51:38 AM 38.1110 -95.4920 78° East 503 579 35,000  Level FlightAware
Tue 10:52:48 AM 38.1420 -95.3020 78° East 498 573 35,000  Level FlightAware
Tue 10:53:43 AM 38.1570 -95.2150 78° East 497 572 35,000  Level FlightAware
Tue 10:54:28 AM 38.1910 -94.9980 79° East 500 575 35,000  Level FlightAware
Tue 10:55:08 AM 38.2100 -94.8830 78° East 499 574 35,000  Level FlightAware
Tue 10:55:48 AM 38.2280 -94.7680 79° East 499 574 35,000  Level FlightAware
Tue 10:56:33 AM 38.2490 -94.6320 79° East 500 575 35,000  Level FlightAware
Tue 10:57:13 AM 38.2670 -94.5200 78° East 499 574 35,000  Level FlightAware
Tue 10:57:58 AM 38.2770 -94.3890 84° East 493 567 35,000  Level FlightAware
Tue 10:58:38 AM 38.2830 -94.2760 86° East 493 567 35,000  Level FlightAware
Tue 10:59:18 AM 38.2880 -94.1640 87° East 492 566 35,000  Level FlightAware
Tue 11:00:03 AM 38.2940 -94.0280 87° East 492 566 35,000  Level FlightAware
Tue 11:00:43 AM 38.3000 -93.9120 86° East 492 566 35,000  Level FlightAware
Tue 11:01:18 AM 38.3040 -93.8200 87° East 491 565 35,000  Level FlightAware
Tue 11:02:08 AM 38.3110 -93.6700 87° East 491 565 35,000  Level FlightAware
Tue 11:02:48 AM 38.3160 -93.5520 87° East 492 566 35,000  Level FlightAware
Tue 11:03:33 AM 38.3210 -93.4210 87° East 493 567 35,000  Level FlightAware
Tue 11:04:13 AM 38.3260 -93.3050 87° East 494 568 35,000  Level FlightAware
Tue 11:04:58 AM 38.3310 -93.1800 87° East 494 568 35,000  Level FlightAware
Tue 11:05:33 AM 38.3350 -93.0730 87° East 493 567 35,000  Level FlightAware
Tue 11:06:18 AM 38.3400 -92.9460 87° East 488 562 35,000  Level FlightAware
Tue 11:07:03 AM 38.3450 -92.8140 87° East 483 556 35,000  Level FlightAware
Tue 11:07:43 AM 38.3490 -92.7000 87° East 488 562 35,000  Level FlightAware
Tue 11:08:28 AM 38.3530 -92.5840 87° East 489 563 35,000  Level FlightAware
Tue 11:09:08 AM 38.3570 -92.4860 87° East 489 563 35,000  Level FlightAware
Tue 11:09:48 AM 38.3610 -92.3880 87° East 489 563 35,000  Level FlightAware
Tue 11:10:28 AM 38.3660 -92.2900 86° East 489 563 35,000  Level FlightAware
Tue 11:11:08 AM 38.3700 -92.1920 87° East 489 563 35,000  Level FlightAware
Tue 11:11:58 AM 38.3750 -92.0700 87° East 489 563 35,000  Level FlightAware
Tue 11:12:38 AM 38.3790 -91.9720 87° East 489 563 35,000  Level FlightAware
Tue 11:13:18 AM 38.3830 -91.8740 87° East 489 563 35,000  Level FlightAware
Tue 11:13:58 AM 38.3870 -91.7760 87° East 489 563 35,000  Level FlightAware
Tue 11:14:38 AM 38.3910 -91.6780 87° East 489 563 35,000  Level FlightAware
Tue 11:15:28 AM 38.3960 -91.5550 87° East 489 563 35,000  Level FlightAware
Tue 11:16:08 AM 38.4000 -91.4570 87° East 489 563 35,000  Level FlightAware
Tue 11:16:48 AM 38.4040 -91.3590 87° East 489 563 35,000  Level FlightAware
Tue 11:17:23 AM 38.3200 -91.0580 109° East 490 564 35,000  Level FlightAware
Tue 11:18:08 AM 38.3280 -90.9410 85° East 490 564 35,000  Level FlightAware
Tue 11:18:58 AM 38.3360 -90.8180 85° East 490 564 35,000  Level FlightAware
Tue 11:19:38 AM 38.3430 -90.7210 85° East 490 564 35,000  Level FlightAware
Tue 11:20:23 AM 38.3510 -90.5490 87° East 489 563 35,000  Level FlightAware
Tue 11:20:58 AM 38.3560 -90.4350 87° East 490 564 35,000  Level FlightAware
Tue 11:21:58 AM 38.3650 -90.2750 86° East 489 563 35,000 -420 Level FlightAware
Tue 11:22:38 AM 38.3720 -90.1450 86° East 491 565 34,300 -565 Descending FlightAware
Tue 11:23:23 AM 38.3780 -90.0330 86° East 489 563 34,200 -918 Descending FlightAware
Tue 11:24:03 AM 38.3850 -89.9040 86° East 489 563 33,000 -847 Descending FlightAware
Tue 11:24:48 AM 38.3910 -89.7740 87° East 490 564 33,000  Level FlightAware
Tue 11:25:28 AM 38.3970 -89.6570 86° East 502 578 33,000  Level FlightAware
Tue 11:26:08 AM 38.4030 -89.5350 86° East 507 583 33,000  Level FlightAware
Tue 11:26:53 AM 38.4090 -89.4040 87° East 507 583 33,000  Level FlightAware
Tue 11:27:33 AM 38.4140 -89.2930 87° East 507 583 33,000  Level FlightAware
Tue 11:28:18 AM 38.4200 -89.1530 87° East 509 586 33,000  Level FlightAware
Tue 11:28:58 AM 38.4160 -89.0310 92° East 507 583 33,000  Level FlightAware
Tue 11:29:38 AM 38.4100 -88.9080 94° East 507 583 33,000 -353 Level FlightAware
Tue 11:30:23 AM 38.4040 -88.7740 93° East 506 582 32,500 -776 Descending FlightAware
Tue 11:31:03 AM 38.3990 -88.6580 93° East 503 579 31,900 -988 Descending FlightAware
Tue 11:31:48 AM 38.3930 -88.5220 93° East 500 575 31,100 -1,059 Descending FlightAware
Tue 11:32:28 AM 38.3870 -88.4070 94° East 502 578 30,400 -1,050 Descending FlightAware
Tue 11:33:08 AM 38.3820 -88.2860 93° East 500 575 29,700 -988 Descending FlightAware
Tue 11:33:53 AM 38.3750 -88.1570 94° East 501 577 29,000 -706 Descending FlightAware
Tue 11:34:33 AM 38.3690 -88.0360 94° East 503 579 28,700 -706 Descending FlightAware
Tue 11:35:18 AM 38.3620 -87.9030 94° East 506 582 28,000 -1,059 Descending FlightAware
Tue 11:35:58 AM 38.3560 -87.7830 94° East 512 589 27,200 -1,125 Descending FlightAware
Tue 11:36:38 AM 38.3500 -87.6650 94° East 515 593 26,500 -988 Descending FlightAware
Tue 11:37:23 AM 38.3420 -87.5300 94° East 507 583 25,800 -1,129 Descending FlightAware
Tue 11:38:03 AM 38.3360 -87.4120 94° East 497 572 24,900 -2,400 Descending FlightAware
Tue 11:38:48 AM 38.3280 -87.2820 94° East 482 555 22,400 -3,318 Descending FlightAware
Tue 11:39:28 AM 38.3140 -87.1690 99° East 468 539 20,200 -3,176 Descending FlightAware
Tue 11:40:13 AM 38.3030 -87.0450 96° East 449 517 17,900 -2,329 Descending FlightAware
Tue 11:40:53 AM 38.3020 -86.9510 91° East 400 460 16,900 -2,259 Descending FlightAware
Tue 11:41:38 AM 38.2970 -86.8470 93° East 376 433 14,700 -2,541 Descending FlightAware
Tue 11:42:18 AM 38.2810 -86.7640 104° East 363 418 13,300 -2,274 Descending FlightAware
Tue 11:43:13 AM 38.2810 -86.6420 90° East 387 445 11,100 -1,582 Descending FlightAware
Tue 11:44:08 AM 38.2950 -86.5290 81° East 340 391 10,400 -988 Descending FlightAware
Tue 11:44:38 AM 38.3020 -86.4650 82° East 328 377 9,700 -1,440 Descending FlightAware
Tue 11:44:58 AM 38.3060 -86.4320 81° East 328 377 9,200 -764 Descending FlightAware
Tue 11:45:33 AM 38.3130 -86.3720 82° East 326 375 9,000 -267 Descending FlightAware
Tue 11:45:43 AM 38.3150 -86.3560 81° East 326 375 9,000  Level FlightAware
Tue 11:46:13 AM 38.3210 -86.3070 81° East 326 375 9,000 -1,650 Level FlightAware
Tue 11:46:23 AM 38.3240 -86.2800 82° East 276 318 7,900 -2,267 Descending FlightAware
Tue 11:46:58 AM 38.3300 -86.2270 82° East 265 305 7,300 -1,015 Descending FlightAware
Tue 11:47:28 AM 38.3350 -86.1800 82° East 258 297 6,800 -1,091 Descending FlightAware
Tue 11:47:53 AM 38.3400 -86.1410 81° East 253 291 6,300 -1,200 Descending FlightAware
Tue 11:48:08 AM 38.3430 -86.1180 81° East 251 289 6,000 -1,200 Descending FlightAware
Tue 11:48:38 AM 38.3480 -86.0750 82° East 248 285 5,400 -1,200 Descending FlightAware
Tue 11:49:03 AM 38.3520 -86.0390 82° East 246 283 4,900 -1,350 Descending FlightAware
Tue 11:49:18 AM 38.3590 -86.0180 67° East 257 296 4,500 -1,200 Descending FlightAware
Tue 11:49:33 AM 38.3710 -86.0050 40° Northeast 260 299 4,300 -800 Descending FlightAware
Tue 11:49:48 AM 38.3870 -85.9960 24° Northeast 255 293 4,100 -600 Descending FlightAware
Tue 11:50:13 AM 38.4150 -85.9810 23° Northeast 251 289 3,900 -240 Descending FlightAware
Tue 11:50:38 AM 38.4420 -85.9650 25° Northeast 236 272 3,900  Level FlightAware
Tue 11:51:08 AM 38.4720 -85.9500 21° North 218 251 3,900  Level FlightAware
Tue 11:51:33 AM 38.4940 -85.9520 356° North 211 243 3,900  Level FlightAware
Tue 11:51:48 AM 38.5100 -85.9540 354° North 212 244 3,900  Level FlightAware
Tue 11:52:18 AM 38.5400 -85.9590 353° North 213 245 3,900 -100 Level FlightAware
Tue 11:52:48 AM 38.5640 -85.9420 29° Northeast 219 252 3,800 -533 Descending FlightAware
Tue 11:53:03 AM 38.5700 -85.9240 67° East 216 249 3,500 -1,050 Descending FlightAware
Tue 11:53:28 AM 38.5770 -85.8950 73° East 211 243 3,100 -480 Descending FlightAware
Tue 11:53:53 AM 38.5830 -85.8660 75° East 211 243 3,100 -109 Level FlightAware
Tue 11:55:18 AM 38.5020 -85.8530 173° South 176 203 2,900 -120 Descending FlightAware
Tue 11:55:33 AM 38.4910 -85.8490 164° South 173 199 2,900  Level FlightAware
Tue 11:55:58 AM 38.4700 -85.8430 167° South 178 205 2,900  Level FlightAware
Tue 11:56:23 AM 38.4530 -85.8370 165° South 178 205 2,900  Level FlightAware
Tue 11:56:58 AM 38.4240 -85.8270 165° South 175 201 2,900  Level FlightAware
Tue 11:57:08 AM 38.4160 -85.8250 169° South 176 203 2,900  Level FlightAware
Tue 11:57:38 AM 38.3910 -85.8160 164° South 173 199 2,900  Level FlightAware
Tue 11:58:08 AM 38.3670 -85.8080 165° South 176 203 2,900  Level FlightAware
Tue 11:58:23 AM 38.3560 -85.8050 168° South 176 203 2,900  Level FlightAware
Tue 11:58:48 AM 38.3350 -85.7970 163° South 179 206 2,900 -150 Level FlightAware
Tue 11:59:03 AM 38.3230 -85.7940 169° South 177 204 2,800 -533 Descending FlightAware
Tue 11:59:33 AM 38.3010 -85.7860 164° South 154 177 2,500 -400 Descending FlightAware
Tue 12:00:03 PM 38.2820 -85.7800 166° South 144 166 2,400 -545 Descending FlightAware
Tue 12:00:28 PM 38.2650 -85.7740 165° South 130 150 2,000 -764 Descending FlightAware
Tue 12:00:58 PM 38.2490 -85.7690 166° South 118 136 1,700 -667 Descending FlightAware
Tue 12:01:13 PM 38.2410 -85.7670 169° South 117 135 1,500 -600 Descending FlightAware
Tue 12:01:38 PM 38.2280 -85.7620 163° South 117 135 1,300 -545 Descending FlightAware
Tue 12:02:08 PM 38.2120 -85.7570 166° South 116 133 1,000 -655 Descending FlightAware
Tue 12:02:33 PM 38.1990 -85.7530 166° South 124 143 700 -655 Descending FlightAware
Tue 12:03:03 PM 38.1820 -85.7470 164° South 123 142 400 -600 Descending FlightAware

Login

Don't have an account? Register now (free) for customized features, flight alerts, and more!